Eudora Lee — WDB5643 — position and weather

sailwx.info

Track history (hours):
 
Tides and Currents Weather Stations Pressure Air Temp Water Temp Dewpoint Dewpoint Depression Visibility Wind Speed Wind Dir Waves Ship Positions

Eudora Lee

Owner: P & D MARINE TOWING. INC., Edgewater, FL. More information available from US FCC via Universal Licensing System and Coast Guard Vessel Documentation Center.

Last reported at 2018-Mar-17 09:56 UTC. Time now 2018-Jul-22 21:46 UTC.
Position N 30°26' W 086°19'.
Warning: this ship's position is months out of date.

Length 14 m; draft 2 m.

Type: Tug. MMSI: 366911910.

Date/timePositionNaut miles runAvg speedWind from/ knotsBaromVisibWave heightAir tempDewpointWater temp
2018-Mar-17 09:56N 30°26' W 086°19'2 4.1
2018-Mar-17 09:30N 30°26' W 086°21'2 4.2
2018-Mar-17 09:00N 30°26' W 086°24'2 4.2
2018-Mar-17 08:31N 30°26' W 086°26'2 4.1
2018-Mar-17 07:56N 30°26' W 086°29'15 4.3
2018-Mar-17 04:23N 30°24' W 086°46'2 4.1
2018-Mar-17 03:59N 30°24' W 086°48'2 4.1
2018-Mar-17 03:28N 30°24' W 086°51'  
2018-Mar-11 22:37N 29°33' W 090°28'1 4.6
2018-Mar-11 22:30N 29°34' W 090°29'2 4.5
2018-Mar-11 21:58N 29°34' W 090°32'2 4.4
2018-Mar-11 21:30N 29°34' W 090°34'1 3.0
2018-Mar-11 21:00N 29°34' W 090°36'1 2.3
2018-Mar-11 20:30N 29°33' W 090°36'1 1.9
2018-Mar-11 19:59N 29°33' W 090°35'1 2.2
2018-Mar-11 19:28N 29°32' W 090°35'1 0.9
2018-Mar-11 18:16N 29°33' W 090°35'1 3.4
2018-Mar-11 18:00N 29°33' W 090°36'1 2.9
2018-Mar-11 17:30N 29°35' W 090°36'3 5.9
2018-Mar-11 17:00N 29°36' W 090°39'3 6.0
2018-Mar-11 16:30N 29°37' W 090°42'1 1.3
2018-Mar-11 16:00N 29°36' W 090°43'2 4.3
2018-Mar-11 15:30N 29°36' W 090°40'1 2.2
2018-Mar-11 15:00N 29°36' W 090°41'1 2.7
2018-Mar-11 14:30N 29°36' W 090°40'0 0.0
2018-Mar-11 13:59N 29°36' W 090°40'0 0.0
2018-Mar-11 13:15N 29°36' W 090°40'0 0.2
2018-Mar-11 13:00N 29°36' W 090°40'3 5.1
2018-Mar-11 12:30N 29°35' W 090°37'2 4.8
2018-Mar-11 12:00N 29°34' W 090°34'2 4.8
2018-Mar-11 11:30N 29°34' W 090°32'  
2018-Mar-08 20:31N 30°24' W 086°53'0 4.6
2018-Mar-08 20:29N 30°24' W 086°53'  
Track history (hours):
 
Tides and Currents Weather Stations Pressure Air Temp Water Temp Dewpoint Dewpoint Depression Visibility Wind Speed Wind Dir Waves Ship Positions

Eudora Lee

Owner: P & D MARINE TOWING. INC., Edgewater, FL. More information available from US FCC via Universal Licensing System and Coast Guard Vessel Documentation Center.

Last reported at 2018-Mar-17 09:56 UTC. Time now 2018-Jul-22 21:46 UTC.
Position N 30°26' W 086°19'.
Warning: this ship's position is months out of date.

Length 14 m; draft 2 m.

Type: Tug. MMSI: 366911910.

Date/timePositionNaut miles runAvg speedWind from/ knotsBaromVisibWave heightAir tempDewpointWater temp
2018-Mar-17 09:56N 30°26' W 086°19'2 4.1
2018-Mar-17 09:30N 30°26' W 086°21'2 4.2
2018-Mar-17 09:00N 30°26' W 086°24'2 4.2
2018-Mar-17 08:31N 30°26' W 086°26'2 4.1
2018-Mar-17 07:56N 30°26' W 086°29'15 4.3
2018-Mar-17 04:23N 30°24' W 086°46'2 4.1
2018-Mar-17 03:59N 30°24' W 086°48'2 4.1
2018-Mar-17 03:28N 30°24' W 086°51'  
2018-Mar-11 22:37N 29°33' W 090°28'1 4.6
2018-Mar-11 22:30N 29°34' W 090°29'2 4.5
2018-Mar-11 21:58N 29°34' W 090°32'2 4.4
2018-Mar-11 21:30N 29°34' W 090°34'1 3.0
2018-Mar-11 21:00N 29°34' W 090°36'1 2.3
2018-Mar-11 20:30N 29°33' W 090°36'1 1.9
2018-Mar-11 19:59N 29°33' W 090°35'1 2.2
2018-Mar-11 19:28N 29°32' W 090°35'1 0.9
2018-Mar-11 18:16N 29°33' W 090°35'1 3.4
2018-Mar-11 18:00N 29°33' W 090°36'1 2.9
2018-Mar-11 17:30N 29°35' W 090°36'3 5.9
2018-Mar-11 17:00N 29°36' W 090°39'3 6.0
2018-Mar-11 16:30N 29°37' W 090°42'1 1.3
2018-Mar-11 16:00N 29°36' W 090°43'2 4.3
2018-Mar-11 15:30N 29°36' W 090°40'1 2.2
2018-Mar-11 15:00N 29°36' W 090°41'1 2.7
2018-Mar-11 14:30N 29°36' W 090°40'0 0.0
2018-Mar-11 13:59N 29°36' W 090°40'0 0.0
2018-Mar-11 13:15N 29°36' W 090°40'0 0.2
2018-Mar-11 13:00N 29°36' W 090°40'3 5.1
2018-Mar-11 12:30N 29°35' W 090°37'2 4.8
2018-Mar-11 12:00N 29°34' W 090°34'2 4.8
2018-Mar-11 11:30N 29°34' W 090°32'  
2018-Mar-08 20:31N 30°24' W 086°53'0 4.6
2018-Mar-08 20:29N 30°24' W 086°53'  

Dump ship's entire track history